Time;durP1;ratioP1;P1;durP2;ratioP2;P2;SDS_P1;SDS_P2;PMS_P1;PMS_P2;Temp;Humidity;BMP_temperature;BMP_pressure;BME280_temperature;BME280_humidity;BME280_pressure;Samples;Min_cycle;Max_cycle;Signal;HPM_P1;HPM_P2
2022/05/15 00:02:07;;;;;;;23.33;6.47;;;;;;;;;;5140449;27;20057;-45
2022/05/15 00:04:33;;;;;;;6.25;4.00;;;;;;;;;;5137759;27;20626;-49
2022/05/15 00:06:58;;;;;;;9.48;3.28;;;;;;;;;;5140974;27;20075;-46
2022/05/15 00:09:23;;;;;;;6.10;4.57;;;;;;;;;;5141540;27;20045;-49
2022/05/15 00:11:49;;;;;;;8.63;4.45;;;;;;;;;;5141982;27;20483;-45
2022/05/15 00:14:14;;;;;;;3.72;2.83;;;;;;;;;;5139278;27;20035;-48
2022/05/15 00:16:40;;;;;;;6.43;4.63;;;;;;;;;;5138278;27;20058;-49
2022/05/15 00:19:06;;;;;;;12.93;6.63;;;;;;;;;;5136303;27;20571;-45
2022/05/15 00:21:31;;;;;;;14.10;4.72;;;;;;;;;;5140199;27;20043;-44
2022/05/15 00:23:57;;;;;;;4.80;3.10;;;;;;;;;;5138773;27;20089;-48
2022/05/15 00:26:22;;;;;;;9.07;3.75;;;;;;;;;;5135187;27;20058;-49
2022/05/15 00:28:47;;;;;;;11.23;2.88;;;;;;;;;;5136191;27;20094;-48
2022/05/15 00:31:12;;;;;;;11.02;3.35;;;;;;;;;;5137711;27;20043;-48
2022/05/15 00:33:38;;;;;;;6.65;3.17;;;;;;;;;;5137292;27;20062;-46
2022/05/15 00:36:03;;;;;;;4.90;2.30;;;;;;;;;;5137282;27;20051;-45
2022/05/15 00:38:29;;;;;;;11.23;4.07;;;;;;;;;;5138680;27;20111;-46
2022/05/15 00:40:54;;;;;;;4.85;3.63;;;;;;;;;;5140392;27;20039;-47
2022/05/15 00:43:37;;;;;;;6.10;3.60;;;;;;;;;;5138024;27;20042;-46
2022/05/15 00:46:04;;;;;;;10.57;4.07;;;;;;;;;;5135411;27;20441;-46
2022/05/15 00:48:29;;;;;;;10.43;3.28;;;;;;;;;;5140780;27;20142;-47
2022/05/15 00:50:55;;;;;;;8.70;4.28;;;;;;;;;;5140158;27;20125;-48
2022/05/15 00:53:20;;;;;;;12.95;4.95;;;;;;;;;;5138404;27;20130;-47
2022/05/15 00:55:48;;;;;;;4.97;3.45;;;;;;;;;;5138065;27;20050;-47
2022/05/15 00:58:28;;;;;;;10.18;4.05;;;;;;;;;;5137438;27;20042;-45
2022/05/15 01:00:53;;;;;;;6.60;3.88;;;;;;;;;;5136268;27;20058;-45
2022/05/15 01:03:19;;;;;;;4.47;2.45;;;;;;;;;;5137127;27;20043;-44
2022/05/15 01:05:46;;;;;;;11.52;5.00;;;;;;;;;;5140410;27;20078;-46
2022/05/15 01:08:12;;;;;;;4.45;3.55;;;;;;;;;;5138505;27;20046;-49
2022/05/15 01:10:39;;;;;;;6.57;3.75;;;;;;;;;;5134355;27;20117;-45
2022/05/15 01:13:05;;;;;;;8.48;4.03;;;;;;;;;;5135161;27;20038;-47
2022/05/15 01:15:31;;;;;;;10.13;4.95;;;;;;;;;;5141636;27;20042;-47
2022/05/15 01:17:56;;;;;;;4.68;3.00;;;;;;;;;;5137749;27;20183;-46
2022/05/15 01:20:23;;;;;;;11.13;4.38;;;;;;;;;;5141168;27;20121;-50
2022/05/15 01:22:48;;;;;;;5.45;2.92;;;;;;;;;;5140960;27;20038;-46
2022/05/15 01:25:17;;;;;;;4.72;3.60;;;;;;;;;;5140651;27;20045;-45
2022/05/15 01:27:49;;;;;;;9.05;4.97;;;;;;;;;;5142632;27;20507;-49
2022/05/15 01:30:15;;;;;;;11.35;3.72;;;;;;;;;;5141030;27;20141;-51
2022/05/15 01:32:40;;;;;;;6.13;4.57;;;;;;;;;;5142354;27;20122;-48
2022/05/15 01:35:06;;;;;;;5.97;3.55;;;;;;;;;;5143107;27;20139;-47
2022/05/15 01:37:31;;;;;;;14.57;3.53;;;;;;;;;;5141008;27;20561;-49
2022/05/15 01:39:57;;;;;;;8.70;4.22;;;;;;;;;;5140874;27;20047;-47
2022/05/15 01:42:22;;;;;;;4.45;3.88;;;;;;;;;;5141488;27;20054;-48
2022/05/15 01:44:47;;;;;;;6.88;3.13;;;;;;;;;;5139827;27;20042;-46
2022/05/15 01:47:13;;;;;;;7.13;3.65;;;;;;;;;;5138241;27;20049;-47
2022/05/15 01:49:38;;;;;;;11.02;3.75;;;;;;;;;;5143138;27;20038;-46
2022/05/15 01:52:04;;;;;;;12.70;4.95;;;;;;;;;;5138434;27;20407;-48
2022/05/15 01:54:29;;;;;;;8.68;4.68;;;;;;;;;;5143664;27;20047;-49
2022/05/15 01:56:55;;;;;;;8.57;4.57;;;;;;;;;;5140660;27;20046;-46
2022/05/15 01:59:20;;;;;;;6.15;3.72;;;;;;;;;;5143772;27;20039;-47
2022/05/15 02:01:45;;;;;;;10.73;3.50;;;;;;;;;;5139627;27;20046;-45
2022/05/15 02:04:11;;;;;;;5.63;3.90;;;;;;;;;;5143778;27;20047;-50
2022/05/15 02:06:36;;;;;;;21.60;4.93;;;;;;;;;;5143014;27;20050;-50
2022/05/15 02:09:02;;;;;;;9.10;3.72;;;;;;;;;;5143495;27;20096;-47
2022/05/15 02:11:28;;;;;;;16.33;4.65;;;;;;;;;;5142556;27;20051;-45
2022/05/15 02:13:53;;;;;;;8.00;5.13;;;;;;;;;;5140180;27;20039;-52
2022/05/15 02:16:18;;;;;;;4.75;4.18;;;;;;;;;;5144528;27;20392;-47
2022/05/15 02:18:44;;;;;;;4.95;3.83;;;;;;;;;;5140193;27;20391;-45
2022/05/15 02:21:09;;;;;;;7.47;4.18;;;;;;;;;;5144590;27;20143;-51
2022/05/15 02:23:35;;;;;;;6.35;4.25;;;;;;;;;;5144272;27;20070;-46
2022/05/15 02:26:01;;;;;;;7.35;4.32;;;;;;;;;;5139495;27;20047;-47
2022/05/15 02:28:27;;;;;;;11.90;4.72;;;;;;;;;;5140448;27;20121;-46
2022/05/15 02:30:52;;;;;;;5.43;3.55;;;;;;;;;;5137951;27;20559;-50
2022/05/15 02:33:17;;;;;;;21.27;4.60;;;;;;;;;;5141827;27;20049;-48
2022/05/15 02:35:43;;;;;;;5.10;3.58;;;;;;;;;;5137042;27;20118;-48
2022/05/15 02:38:08;;;;;;;6.60;4.80;;;;;;;;;;5140053;27;20043;-46
2022/05/15 02:40:33;;;;;;;9.52;4.32;;;;;;;;;;5142765;27;20354;-49
2022/05/15 02:42:59;;;;;;;3.92;3.53;;;;;;;;;;5141698;27;20456;-46
2022/05/15 02:45:24;;;;;;;21.70;4.15;;;;;;;;;;5144203;27;20103;-47
2022/05/15 02:47:50;;;;;;;5.55;3.60;;;;;;;;;;5141757;27;20106;-49
2022/05/15 02:53:00;;;;;;;13.10;6.82;;;;;;;;;;5143070;27;20042;-45
2022/05/15 02:55:25;;;;;;;8.10;4.95;;;;;;;;;;5138930;27;20051;-47
2022/05/15 02:57:51;;;;;;;4.38;3.92;;;;;;;;;;5139170;27;20053;-47
2022/05/15 03:00:18;;;;;;;5.65;3.78;;;;;;;;;;5140966;27;20644;-44
2022/05/15 03:02:43;;;;;;;8.27;3.28;;;;;;;;;;5141994;27;20046;-48
2022/05/15 03:05:09;;;;;;;7.15;4.55;;;;;;;;;;5142390;27;20027;-46
2022/05/15 03:07:36;;;;;;;6.00;5.32;;;;;;;;;;5137716;27;20047;-51
2022/05/15 03:10:02;;;;;;;5.55;4.78;;;;;;;;;;5141353;27;20061;-47
2022/05/15 03:12:27;;;;;;;13.75;6.43;;;;;;;;;;5137663;27;20679;-47
2022/05/15 03:14:53;;;;;;;6.47;3.85;;;;;;;;;;5138603;27;20106;-48
2022/05/15 03:17:19;;;;;;;8.48;4.05;;;;;;;;;;5141470;27;20714;-46
2022/05/15 03:19:44;;;;;;;8.68;3.72;;;;;;;;;;5142396;27;20131;-52
2022/05/15 03:22:10;;;;;;;5.28;3.92;;;;;;;;;;5137870;27;20043;-50
2022/05/15 03:24:35;;;;;;;4.00;3.03;;;;;;;;;;5138010;27;20053;-46
2022/05/15 03:27:01;;;;;;;3.95;3.25;;;;;;;;;;5142702;27;20134;-49
2022/05/15 03:29:26;;;;;;;12.27;4.32;;;;;;;;;;5141733;27;20030;-46
2022/05/15 03:31:52;;;;;;;7.68;3.60;;;;;;;;;;5141588;27;20043;-47
2022/05/15 03:34:17;;;;;;;6.53;3.47;;;;;;;;;;5141177;27;20495;-49
2022/05/15 03:36:43;;;;;;;5.88;3.40;;;;;;;;;;5137750;27;20046;-50
2022/05/15 03:39:09;;;;;;;8.27;4.55;;;;;;;;;;5138841;27;20058;-47
2022/05/15 03:41:35;;;;;;;15.60;4.47;;;;;;;;;;5138784;27;20042;-52
2022/05/15 03:44:00;;;;;;;4.90;3.42;;;;;;;;;;5140841;27;20874;-46
2022/05/15 03:46:26;;;;;;;7.03;3.67;;;;;;;;;;5136916;27;20130;-49
2022/05/15 03:48:52;;;;;;;7.15;4.30;;;;;;;;;;5141394;27;20399;-47
2022/05/15 03:51:17;;;;;;;6.22;3.60;;;;;;;;;;5136900;27;20042;-45
2022/05/15 03:53:43;;;;;;;4.90;3.15;;;;;;;;;;5135358;27;20039;-48
2022/05/15 03:56:08;;;;;;;6.63;3.88;;;;;;;;;;5140025;27;20074;-48
2022/05/15 03:58:35;;;;;;;5.03;3.40;;;;;;;;;;5139102;27;20046;-46
2022/05/15 04:01:00;;;;;;;8.07;4.47;;;;;;;;;;5139284;27;20039;-51
2022/05/15 04:03:26;;;;;;;19.40;5.20;;;;;;;;;;5138711;27;20062;-48
2022/05/15 04:05:51;;;;;;;5.60;3.10;;;;;;;;;;5138912;27;20051;-48
2022/05/15 04:08:16;;;;;;;5.05;2.75;;;;;;;;;;5136456;27;20114;-47
2022/05/15 04:10:42;;;;;;;7.25;3.38;;;;;;;;;;5141089;27;20524;-48
2022/05/15 04:13:07;;;;;;;10.95;2.88;;;;;;;;;;5138102;27;20724;-49
2022/05/15 04:15:32;;;;;;;15.32;3.90;;;;;;;;;;5137029;27;20854;-46
2022/05/15 04:17:58;;;;;;;6.93;2.97;;;;;;;;;;5140397;27;20043;-45
2022/05/15 04:20:26;;;;;;;30.67;6.72;;;;;;;;;;5136569;27;20024;-46
2022/05/15 04:22:51;;;;;;;5.63;3.30;;;;;;;;;;5138032;27;20582;-46
2022/05/15 04:25:17;;;;;;;5.75;3.17;;;;;;;;;;5138742;27;20047;-48
2022/05/15 04:27:42;;;;;;;9.32;3.78;;;;;;;;;;5138323;27;20439;-47
2022/05/15 04:30:15;;;;;;;4.45;3.75;;;;;;;;;;5139972;27;20047;-46
2022/05/15 04:32:41;;;;;;;7.57;3.60;;;;;;;;;;5140142;27;20050;-45
2022/05/15 04:35:07;;;;;;;6.55;3.40;;;;;;;;;;5136487;27;20035;-49
2022/05/15 04:37:33;;;;;;;8.75;4.63;;;;;;;;;;5137905;27;20132;-46
2022/05/15 04:39:58;;;;;;;7.93;4.32;;;;;;;;;;5140044;27;20070;-49
2022/05/15 04:42:23;;;;;;;3.92;2.92;;;;;;;;;;5137532;27;20483;-47
2022/05/15 04:44:49;;;;;;;4.63;3.40;;;;;;;;;;5135896;27;20439;-47
2022/05/15 04:47:15;;;;;;;14.90;2.78;;;;;;;;;;5139357;27;20408;-50
2022/05/15 04:49:41;;;;;;;5.97;4.00;;;;;;;;;;5135280;27;20478;-44
2022/05/15 04:52:06;;;;;;;3.88;3.08;;;;;;;;;;5137984;27;20051;-50
2022/05/15 04:54:31;;;;;;;5.50;3.40;;;;;;;;;;5139822;27;20050;-48
2022/05/15 04:56:57;;;;;;;17.15;3.63;;;;;;;;;;5139794;27;20066;-49
2022/05/15 04:59:24;;;;;;;12.25;4.90;;;;;;;;;;5144151;27;20046;-47
2022/05/15 05:01:49;;;;;;;5.22;3.53;;;;;;;;;;5142086;27;20042;-48
2022/05/15 05:04:14;;;;;;;6.70;3.88;;;;;;;;;;5143277;27;20057;-49
2022/05/15 05:06:41;;;;;;;10.55;4.45;;;;;;;;;;5138154;27;20058;-49
2022/05/15 05:09:06;;;;;;;4.53;3.88;;;;;;;;;;5140028;27;20035;-46
2022/05/15 05:11:32;;;;;;;6.20;3.85;;;;;;;;;;5139907;27;20550;-45
2022/05/15 05:13:57;;;;;;;5.82;2.50;;;;;;;;;;5144924;27;20043;-44
2022/05/15 05:16:22;;;;;;;12.95;4.18;;;;;;;;;;5142903;27;20055;-44
2022/05/15 05:18:48;;;;;;;6.75;3.47;;;;;;;;;;5142930;27;20096;-49
2022/05/15 05:21:13;;;;;;;9.85;4.15;;;;;;;;;;5143710;27;20058;-44
2022/05/15 05:23:39;;;;;;;13.55;4.55;;;;;;;;;;5140839;27;20528;-44
2022/05/15 05:26:04;;;;;;;17.98;9.30;;;;;;;;;;5139595;27;20045;-47
2022/05/15 05:28:30;;;;;;;31.08;16.95;;;;;;;;;;5140373;27;20475;-48
2022/05/15 05:30:55;;;;;;;17.25;11.45;;;;;;;;;;5140869;27;20495;-49
2022/05/15 05:33:21;;;;;;;12.95;7.70;;;;;;;;;;5140002;27;20039;-48
2022/05/15 05:35:47;;;;;;;12.40;9.27;;;;;;;;;;5137859;27;20035;-46
2022/05/15 05:38:12;;;;;;;8.43;5.40;;;;;;;;;;5144186;27;20078;-48
2022/05/15 05:40:38;;;;;;;9.95;5.40;;;;;;;;;;5142437;27;20062;-47
2022/05/15 05:43:03;;;;;;;9.70;3.65;;;;;;;;;;5142635;27;20134;-47
2022/05/15 05:45:29;;;;;;;21.13;2.97;;;;;;;;;;5142385;27;20037;-48
2022/05/15 05:47:55;;;;;;;9.43;3.75;;;;;;;;;;5143881;27;20078;-46
2022/05/15 05:50:22;;;;;;;6.65;3.47;;;;;;;;;;5140348;27;20058;-47
2022/05/15 05:52:47;;;;;;;8.60;3.22;;;;;;;;;;5138828;27;20041;-45
2022/05/15 05:55:14;;;;;;;10.48;3.72;;;;;;;;;;5141242;27;20125;-49
2022/05/15 05:57:41;;;;;;;3.00;2.45;;;;;;;;;;5141346;27;20067;-46
2022/05/15 06:00:08;;;;;;;7.22;3.50;;;;;;;;;;5143038;27;20051;-47
2022/05/15 06:02:33;;;;;;;8.38;3.40;;;;;;;;;;5141987;27;20144;-48
2022/05/15 06:04:58;;;;;;;9.93;4.90;;;;;;;;;;5139899;27;20662;-47
2022/05/15 06:07:25;;;;;;;5.53;3.40;;;;;;;;;;5138975;27;20042;-48
2022/05/15 06:09:51;;;;;;;8.77;5.50;;;;;;;;;;5140903;27;20054;-50
2022/05/15 06:12:17;;;;;;;8.70;3.50;;;;;;;;;;5144747;27;20589;-44
2022/05/15 06:14:42;;;;;;;5.55;3.40;;;;;;;;;;5144329;27;20043;-47
2022/05/15 06:17:08;;;;;;;10.68;5.35;;;;;;;;;;5141160;27;20469;-44
2022/05/15 06:19:34;;;;;;;10.32;3.75;;;;;;;;;;5142810;27;20506;-49
2022/05/15 06:21:59;;;;;;;9.73;5.43;;;;;;;;;;5142644;27;20078;-46
2022/05/15 06:24:27;;;;;;;5.95;4.50;;;;;;;;;;5139123;27;20520;-44
2022/05/15 06:26:53;;;;;;;6.85;5.05;;;;;;;;;;5141668;27;20804;-47
2022/05/15 06:29:18;;;;;;;8.75;4.47;;;;;;;;;;5138050;27;20078;-51
2022/05/15 06:31:44;;;;;;;12.57;5.47;;;;;;;;;;5141743;27;20047;-49
2022/05/15 06:34:09;;;;;;;15.70;6.13;;;;;;;;;;5144584;27;20039;-48
2022/05/15 06:36:34;;;;;;;7.07;4.38;;;;;;;;;;5140612;27;20043;-48
2022/05/15 06:38:59;;;;;;;7.53;4.28;;;;;;;;;;5143137;27;20058;-48
2022/05/15 06:41:25;;;;;;;4.85;4.10;;;;;;;;;;5140605;27;20424;-47
2022/05/15 06:43:50;;;;;;;8.65;4.50;;;;;;;;;;5138047;27;20051;-48
2022/05/15 06:46:16;;;;;;;19.77;4.53;;;;;;;;;;5141696;27;20050;-47
2022/05/15 06:48:41;;;;;;;11.65;3.95;;;;;;;;;;5138149;27;20039;-48
2022/05/15 06:51:07;;;;;;;5.47;3.10;;;;;;;;;;5144105;27;20038;-46
2022/05/15 06:53:32;;;;;;;6.90;3.70;;;;;;;;;;5140366;27;20035;-45
2022/05/15 06:58:42;;;;;;;13.48;5.13;;;;;;;;;;5141259;27;20045;-49
2022/05/15 07:01:07;;;;;;;9.65;3.95;;;;;;;;;;5139859;27;20046;-49
2022/05/15 07:03:33;;;;;;;18.70;12.90;;;;;;;;;;5139750;27;20463;-48
2022/05/15 07:05:58;;;;;;;24.15;13.02;;;;;;;;;;5143686;27;20039;-49
2022/05/15 07:08:24;;;;;;;17.52;12.63;;;;;;;;;;5142933;27;20601;-48
2022/05/15 07:10:49;;;;;;;39.33;20.00;;;;;;;;;;5138855;27;20474;-51
2022/05/15 07:13:14;;;;;;;31.08;20.33;;;;;;;;;;5141611;27;20080;-48
2022/05/15 07:15:40;;;;;;;32.85;16.00;;;;;;;;;;5137935;27;20035;-50
2022/05/15 07:18:06;;;;;;;15.10;11.80;;;;;;;;;;5141018;27;20054;-53
2022/05/15 07:20:31;;;;;;;16.17;9.23;;;;;;;;;;5136675;27;20039;-52
2022/05/15 07:22:57;;;;;;;9.88;7.78;;;;;;;;;;5140169;27;20043;-48
2022/05/15 07:25:22;;;;;;;12.07;8.13;;;;;;;;;;5139950;27;20046;-50
2022/05/15 07:27:48;;;;;;;9.00;5.82;;;;;;;;;;5140110;27;20473;-58
2022/05/15 07:30:13;;;;;;;16.30;12.68;;;;;;;;;;5139341;27;20051;-57
2022/05/15 07:32:39;;;;;;;14.02;8.00;;;;;;;;;;5138767;27;20091;-58
2022/05/15 07:35:04;;;;;;;8.70;5.05;;;;;;;;;;5140455;27;20038;-57
2022/05/15 07:37:29;;;;;;;17.23;5.03;;;;;;;;;;5141139;27;20086;-58
2022/05/15 07:39:55;;;;;;;11.70;4.20;;;;;;;;;;5140271;27;20533;-58
2022/05/15 07:42:20;;;;;;;9.23;5.53;;;;;;;;;;5141007;27;20049;-58
2022/05/15 07:44:47;;;;;;;11.85;4.45;;;;;;;;;;5140267;27;20672;-58
2022/05/15 07:47:12;;;;;;;6.68;3.72;;;;;;;;;;5138234;27;20696;-58
2022/05/15 07:49:37;;;;;;;12.23;6.35;;;;;;;;;;5138896;27;20041;-58
2022/05/15 07:52:03;;;;;;;20.85;4.78;;;;;;;;;;5138809;27;20065;-58
2022/05/15 07:54:28;;;;;;;12.23;4.15;;;;;;;;;;5137878;27;20042;-58
2022/05/15 07:56:53;;;;;;;5.63;3.45;;;;;;;;;;5137587;27;20046;-58
2022/05/15 07:59:19;;;;;;;10.45;2.42;;;;;;;;;;5137608;27;20046;-59
2022/05/15 08:01:44;;;;;;;13.23;3.20;;;;;;;;;;5137490;27;20035;-58
2022/05/15 08:04:10;;;;;;;6.03;3.05;;;;;;;;;;5138590;27;20046;-60
2022/05/15 08:09:19;;;;;;;6.25;2.60;;;;;;;;;;5137599;27;20103;-60
2022/05/15 08:11:44;;;;;;;2.03;0.50;;;;;;;;;;5139665;27;21137;-59
2022/05/15 08:14:10;;;;;;;3.00;2.10;;;;;;;;;;5138752;27;20575;-60
2022/05/15 08:16:36;;;;;;;4.50;2.92;;;;;;;;;;5136796;27;20061;-60
2022/05/15 08:24:41;;;;;;;5.13;1.90;;;;;;;;;;5078279;27;20407;-56
2022/05/15 08:27:09;;;;;;;12.02;4.18;;;;;;;;;;5137755;27;20043;-58
2022/05/15 08:29:34;;;;;;;9.30;3.03;;;;;;;;;;5139142;27;20080;-57
2022/05/15 08:32:00;;;;;;;9.25;2.17;;;;;;;;;;5136341;27;20042;-55
2022/05/15 08:34:25;;;;;;;4.93;3.60;;;;;;;;;;5137796;27;20406;-57
2022/05/15 08:36:51;;;;;;;5.82;2.35;;;;;;;;;;5136790;27;20498;-56
2022/05/15 08:39:17;;;;;;;2.75;1.73;;;;;;;;;;5142287;27;20061;-58
2022/05/15 08:42:01;;;;;;;3.58;2.33;;;;;;;;;;5140663;27;20038;-57
2022/05/15 08:44:29;;;;;;;14.88;3.72;;;;;;;;;;5137396;27;20050;-57
2022/05/15 08:46:55;;;;;;;7.22;1.40;;;;;;;;;;5138446;27;20095;-57
2022/05/15 08:49:26;;;;;;;7.95;1.63;;;;;;;;;;5135093;27;20046;-57
2022/05/15 08:52:10;;;;;;;6.88;2.40;;;;;;;;;;5138523;27;20035;-58
2022/05/15 08:54:41;;;;;;;6.90;2.60;;;;;;;;;;5138018;27;20077;-57
2022/05/15 08:57:13;;;;;;;3.35;1.90;;;;;;;;;;5136396;27;20090;-57
2022/05/15 08:59:43;;;;;;;3.30;1.15;;;;;;;;;;5140382;27;20070;-57
2022/05/15 09:02:10;;;;;;;9.90;1.42;;;;;;;;;;5140287;27;20042;-57
2022/05/15 09:04:36;;;;;;;11.00;2.60;;;;;;;;;;5137865;27;20134;-57
2022/05/15 09:07:04;;;;;;;3.25;1.83;;;;;;;;;;5131587;27;20335;-57
2022/05/15 09:09:33;;;;;;;7.13;2.00;;;;;;;;;;5136579;27;20356;-57
2022/05/15 09:12:11;;;;;;;6.10;1.92;;;;;;;;;;5135408;27;20095;-57
2022/05/15 09:14:36;;;;;;;4.15;1.60;;;;;;;;;;5138311;27;20047;-57
2022/05/15 09:17:13;;;;;;;4.30;2.10;;;;;;;;;;5133682;27;20100;-58
2022/05/15 09:19:39;;;;;;;2.45;1.42;;;;;;;;;;5133715;27;20051;-58
2022/05/15 09:22:04;;;;;;;4.28;1.50;;;;;;;;;;5134796;27;20039;-58
2022/05/15 09:24:29;;;;;;;5.20;2.38;;;;;;;;;;5135108;27;20043;-57
2022/05/15 09:27:09;;;;;;;3.65;2.30;;;;;;;;;;5138063;27;20653;-57
2022/05/15 09:29:34;;;;;;;2.33;1.05;;;;;;;;;;5135447;27;20050;-57
2022/05/15 09:32:00;;;;;;;2.08;1.35;;;;;;;;;;5136663;27;20047;-57
2022/05/15 09:34:26;;;;;;;3.38;1.58;;;;;;;;;;5118027;27;20047;-58
2022/05/15 09:36:52;;;;;;;2.97;1.23;;;;;;;;;;5132188;27;20038;-57
2022/05/15 09:39:25;;;;;;;7.20;2.60;;;;;;;;;;5130263;27;20051;-58
2022/05/15 09:44:53;;;;;;;8.00;1.35;;;;;;;;;;5136425;27;20053;-57
2022/05/15 09:47:18;;;;;;;3.45;1.83;;;;;;;;;;5142498;27;20050;-56
2022/05/15 09:49:44;;;;;;;21.85;3.60;;;;;;;;;;5136518;27;20126;-57
2022/05/15 09:52:11;;;;;;;15.85;6.13;;;;;;;;;;5137661;27;20559;-57
2022/05/15 09:54:38;;;;;;;4.13;1.75;;;;;;;;;;5138243;27;20126;-56
2022/05/15 09:57:24;;;;;;;3.08;1.25;;;;;;;;;;5141636;27;20047;-56
2022/05/15 09:59:52;;;;;;;3.10;1.42;;;;;;;;;;5136969;27;20618;-56
2022/05/15 10:02:23;;;;;;;7.75;1.60;;;;;;;;;;5136299;27;20053;-57
2022/05/15 10:04:49;;;;;;;12.95;1.85;;;;;;;;;;5141371;27;20571;-57
2022/05/15 10:07:33;;;;;;;6.53;2.90;;;;;;;;;;5135941;27;20134;-56
2022/05/15 10:10:10;;;;;;;9.82;3.45;;;;;;;;;;5137543;27;20063;-57
2022/05/15 10:15:54;;;;;;;11.48;2.33;;;;;;;;;;4602740;27;22909;-57
2022/05/15 10:18:25;;;;;;;4.20;2.15;;;;;;;;;;5118240;27;20280;-57
2022/05/15 10:20:52;;;;;;;3.67;2.10;;;;;;;;;;5118451;27;20074;-57
2022/05/15 10:23:25;;;;;;;4.32;2.38;;;;;;;;;;5110004;27;20040;-57
2022/05/15 10:26:07;;;;;;;3.88;2.15;;;;;;;;;;5121293;27;20042;-56
2022/05/15 10:28:44;;;;;;;3.88;2.28;;;;;;;;;;5114230;27;20054;-56
2022/05/15 10:31:33;;;;;;;9.45;2.13;;;;;;;;;;5117886;27;20044;-57
2022/05/15 10:34:00;;;;;;;12.13;1.90;;;;;;;;;;5114615;27;20500;-56
2022/05/15 10:43:03;;;;;;;5.38;2.63;;;;;;;;;;4914960;27;20091;-56
2022/05/15 10:45:40;;;;;;;5.00;2.13;;;;;;;;;;5110548;27;20038;-56
2022/05/15 10:48:09;;;;;;;10.30;2.92;;;;;;;;;;5119332;27;20129;-56
2022/05/15 10:50:53;;;;;;;5.65;2.42;;;;;;;;;;5114199;27;20035;-57
2022/05/15 10:59:24;;;;;;;7.43;2.40;;;;;;;;;;5117297;27;20050;-57
2022/05/15 11:01:49;;;;;;;3.90;1.45;;;;;;;;;;5111454;27;20071;-57
2022/05/15 11:04:22;;;;;;;5.20;2.75;;;;;;;;;;5118034;27;20039;-57
2022/05/15 11:06:56;;;;;;;8.65;2.83;;;;;;;;;;5098165;27;20170;-57
2022/05/15 11:09:28;;;;;;;3.13;1.65;;;;;;;;;;5118582;27;20122;-57
2022/05/15 11:11:59;;;;;;;6.05;1.45;;;;;;;;;;5117044;27;20036;-55
2022/05/15 11:14:28;;;;;;;9.50;2.28;;;;;;;;;;5110866;27;20132;-57
2022/05/15 11:17:09;;;;;;;7.07;2.57;;;;;;;;;;5118421;27;20570;-56
2022/05/15 11:19:37;;;;;;;9.43;1.25;;;;;;;;;;5120166;27;20054;-56
2022/05/15 11:22:12;;;;;;;3.20;2.10;;;;;;;;;;5100811;27;20057;-56
2022/05/15 11:24:43;;;;;;;7.05;2.78;;;;;;;;;;5119110;27;20487;-56
2022/05/15 11:27:12;;;;;;;7.80;2.95;;;;;;;;;;5117470;27;20169;-57
2022/05/15 11:29:41;;;;;;;7.03;2.20;;;;;;;;;;5110609;27;20151;-56
2022/05/15 11:32:26;;;;;;;5.40;2.50;;;;;;;;;;5109186;27;20136;-56
2022/05/15 11:35:03;;;;;;;4.30;1.58;;;;;;;;;;5114316;27;20873;-57
2022/05/15 11:37:40;;;;;;;15.48;1.63;;;;;;;;;;5113343;27;20059;-57
2022/05/15 11:40:11;;;;;;;4.32;1.88;;;;;;;;;;5109480;27;20035;-55
2022/05/15 11:42:36;;;;;;;11.77;3.00;;;;;;;;;;5113340;27;20150;-57
2022/05/15 11:45:32;;;;;;;3.72;0.98;;;;;;;;;;5096120;27;20672;-57
2022/05/15 11:48:11;;;;;;;3.60;1.98;;;;;;;;;;5121580;27;20812;-57
2022/05/15 11:50:57;;;;;;;12.02;1.77;;;;;;;;;;5117495;27;20035;-57
2022/05/15 11:53:25;;;;;;;3.83;2.40;;;;;;;;;;5117567;27;20031;-57
2022/05/15 11:55:51;;;;;;;3.63;2.10;;;;;;;;;;5118299;27;20069;-59
2022/05/15 11:58:23;;;;;;;10.98;3.17;;;;;;;;;;5117787;27;20122;-59
2022/05/15 12:01:07;;;;;;;4.63;2.75;;;;;;;;;;5115575;27;20043;-58
2022/05/15 12:03:39;;;;;;;9.25;2.10;;;;;;;;;;5114509;27;20439;-59
2022/05/15 12:06:04;;;;;;;3.55;2.50;;;;;;;;;;5117711;27;20054;-58
2022/05/15 12:08:32;;;;;;;3.08;1.83;;;;;;;;;;5119924;27;20453;-53
2022/05/15 12:10:58;;;;;;;12.25;3.08;;;;;;;;;;5119164;27;20130;-56
2022/05/15 12:13:30;;;;;;;13.32;3.17;;;;;;;;;;5115297;27;20127;-57
2022/05/15 12:16:14;;;;;;;6.07;3.28;;;;;;;;;;5114587;27;20131;-57
2022/05/15 12:18:40;;;;;;;4.88;2.40;;;;;;;;;;5118847;27;20165;-57
2022/05/15 12:21:05;;;;;;;5.30;2.65;;;;;;;;;;5118074;27;20051;-57
2022/05/15 12:23:36;;;;;;;9.57;5.85;;;;;;;;;;5120709;27;20043;-56
2022/05/15 12:26:15;;;;;;;10.65;6.75;;;;;;;;;;5116320;27;20043;-54
2022/05/15 12:28:53;;;;;;;10.98;5.28;;;;;;;;;;5116442;27;20044;-54
2022/05/15 12:31:18;;;;;;;12.93;7.72;;;;;;;;;;5117504;27;20092;-56
2022/05/15 12:33:44;;;;;;;26.85;8.23;;;;;;;;;;5111890;27;20684;-55
2022/05/15 12:36:12;;;;;;;11.73;6.93;;;;;;;;;;5118332;27;20457;-57
2022/05/15 12:38:38;;;;;;;18.08;7.50;;;;;;;;;;5101850;28;20451;-60
2022/05/15 12:41:06;;;;;;;7.68;5.65;;;;;;;;;;5115952;27;20075;-57
2022/05/15 12:43:33;;;;;;;10.02;6.07;;;;;;;;;;5113784;27;20042;-58
2022/05/15 12:45:59;;;;;;;14.93;6.82;;;;;;;;;;5119222;27;20488;-58
2022/05/15 12:48:25;;;;;;;6.70;4.28;;;;;;;;;;5116039;27;20103;-58
2022/05/15 12:51:03;;;;;;;8.02;5.05;;;;;;;;;;5116986;27;20035;-57
2022/05/15 12:53:36;;;;;;;7.25;5.60;;;;;;;;;;5108605;27;20051;-50
2022/05/15 12:56:09;;;;;;;8.98;3.38;;;;;;;;;;5105221;28;20047;-52
2022/05/15 12:58:35;;;;;;;9.68;3.03;;;;;;;;;;5108626;27;20069;-54
2022/05/15 13:01:01;;;;;;;5.53;2.33;;;;;;;;;;5113627;27;20039;-54
2022/05/15 13:03:26;;;;;;;5.38;3.35;;;;;;;;;;5114091;28;20165;-55
2022/05/15 13:05:56;;;;;;;5.45;3.67;;;;;;;;;;5118115;27;20562;-54
2022/05/15 13:08:22;;;;;;;3.20;2.67;;;;;;;;;;5113099;28;20066;-53
2022/05/15 13:11:02;;;;;;;6.60;2.65;;;;;;;;;;5117230;28;20035;-52
2022/05/15 13:13:34;;;;;;;6.30;2.75;;;;;;;;;;5117673;28;20032;-52
2022/05/15 13:15:59;;;;;;;5.05;2.70;;;;;;;;;;5114313;28;20091;-53
2022/05/15 13:18:26;;;;;;;4.63;2.40;;;;;;;;;;5119103;27;20384;-52
2022/05/15 13:20:53;;;;;;;6.93;2.65;;;;;;;;;;5121466;27;20044;-54
2022/05/15 13:23:19;;;;;;;8.18;3.10;;;;;;;;;;5122931;27;20046;-49
2022/05/15 13:25:47;;;;;;;9.48;3.35;;;;;;;;;;5120950;27;20051;-53
2022/05/15 13:28:13;;;;;;;10.85;3.35;;;;;;;;;;5119823;27;20105;-54
2022/05/15 13:30:39;;;;;;;8.00;2.45;;;;;;;;;;5121884;27;20047;-54
2022/05/15 13:33:07;;;;;;;4.70;2.72;;;;;;;;;;5119148;27;20031;-58
2022/05/15 13:35:43;;;;;;;7.32;2.92;;;;;;;;;;5110776;27;20044;-57
2022/05/15 13:38:14;;;;;;;6.65;2.63;;;;;;;;;;5115026;27;20062;-57
2022/05/15 13:43:29;;;;;;;10.55;2.65;;;;;;;;;;5123079;27;20092;-56
2022/05/15 13:46:21;;;;;;;5.03;2.20;;;;;;;;;;5113587;27;20040;-56
2022/05/15 13:48:52;;;;;;;4.95;2.75;;;;;;;;;;5113613;27;20063;-57
2022/05/15 13:51:36;;;;;;;4.88;2.85;;;;;;;;;;5106739;27;20055;-57
2022/05/15 13:54:15;;;;;;;4.03;2.70;;;;;;;;;;5119409;27;20066;-58
2022/05/15 13:56:41;;;;;;;14.95;2.13;;;;;;;;;;5124119;27;20503;-57
2022/05/15 13:59:28;;;;;;;5.38;1.90;;;;;;;;;;5119802;27;20091;-57
2022/05/15 14:02:08;;;;;;;6.68;1.42;;;;;;;;;;5121704;27;20151;-57
2022/05/15 14:04:34;;;;;;;2.70;1.75;;;;;;;;;;5124203;27;20055;-57
2022/05/15 14:06:59;;;;;;;4.95;3.67;;;;;;;;;;5119834;27;20133;-57
2022/05/15 14:09:40;;;;;;;4.28;1.30;;;;;;;;;;5122973;27;20046;-58
2022/05/15 14:12:05;;;;;;;4.00;2.08;;;;;;;;;;5122677;27;20039;-57
2022/05/15 14:14:40;;;;;;;1.33;0.90;;;;;;;;;;5117637;27;20044;-57
2022/05/15 14:17:05;;;;;;;6.60;3.20;;;;;;;;;;5120935;27;20537;-57
2022/05/15 14:19:31;;;;;;;5.18;2.30;;;;;;;;;;5109894;27;20157;-57
2022/05/15 14:21:58;;;;;;;5.68;1.50;;;;;;;;;;5121854;27;20046;-57
2022/05/15 14:24:24;;;;;;;3.97;1.75;;;;;;;;;;5117873;27;20043;-57
2022/05/15 14:26:49;;;;;;;12.18;2.50;;;;;;;;;;5110104;27;20576;-57
2022/05/15 14:29:14;;;;;;;5.40;2.17;;;;;;;;;;5118782;27;20449;-57
2022/05/15 14:31:40;;;;;;;2.90;1.77;;;;;;;;;;5109384;27;20046;-56
2022/05/15 14:34:05;;;;;;;7.25;3.70;;;;;;;;;;5112763;27;20040;-56
2022/05/15 14:36:32;;;;;;;5.78;2.05;;;;;;;;;;5117310;27;20233;-48
2022/05/15 14:38:58;;;;;;;3.53;1.70;;;;;;;;;;5115281;27;20047;-59
2022/05/15 14:41:23;;;;;;;5.07;2.85;;;;;;;;;;5114919;27;20074;-56
2022/05/15 14:43:49;;;;;;;3.33;1.67;;;;;;;;;;5118618;27;20039;-57
2022/05/15 14:46:25;;;;;;;2.63;1.35;;;;;;;;;;5108508;27;20051;-55
2022/05/15 14:48:51;;;;;;;1.27;0.88;;;;;;;;;;5115273;27;20039;-55
2022/05/15 14:51:21;;;;;;;3.47;2.10;;;;;;;;;;5115626;27;20138;-56
2022/05/15 14:53:46;;;;;;;4.78;3.17;;;;;;;;;;5118033;27;20180;-56
2022/05/15 14:56:12;;;;;;;3.75;2.47;;;;;;;;;;5122915;27;20158;-57
2022/05/15 14:58:43;;;;;;;12.32;2.40;;;;;;;;;;5118709;27;20430;-56
2022/05/15 15:01:09;;;;;;;3.28;2.70;;;;;;;;;;5119858;27;20662;-57
2022/05/15 15:03:34;;;;;;;7.40;2.90;;;;;;;;;;5117615;27;20123;-58
2022/05/15 15:06:02;;;;;;;9.73;1.88;;;;;;;;;;5118870;27;20050;-54
2022/05/15 15:08:28;;;;;;;5.03;2.35;;;;;;;;;;5111443;27;20083;-55
2022/05/15 15:11:12;;;;;;;4.68;2.00;;;;;;;;;;5119426;27;20050;-54
2022/05/15 15:13:38;;;;;;;7.95;3.20;;;;;;;;;;5120928;27;20043;-54
2022/05/15 15:16:05;;;;;;;4.30;2.35;;;;;;;;;;5118982;27;20681;-54
2022/05/15 15:18:30;;;;;;;2.53;1.90;;;;;;;;;;5119804;27;20046;-53